Time;durP1;ratioP1;P1;durP2;ratioP2;P2;SDS_P1;SDS_P2;PMS_P1;PMS_P2;Temp;Humidity;BMP_temperature;BMP_pressure;BME280_temperature;BME280_humidity;BME280_pressure;Samples;Min_cycle;Max_cycle;Signal;HPM_P1;HPM_P2
2021/12/18 00:02:45;;;;;;;829.33;40.97;;;;;;;4.56;70.08;102140.75;10405560;28;20322;-67
2021/12/18 00:07:47;;;;;;;738.45;41.03;;;;;;;4.56;70.16;102137.28;10404089;28;20054;-67
2021/12/18 00:12:50;;;;;;;700.90;35.65;;;;;;;4.75;70.16;102135.56;10404949;28;20051;-67
2021/12/18 00:17:51;;;;;;;420.02;26.15;;;;;;;4.82;69.68;102117.41;10404372;28;20144;-67
2021/12/18 00:22:53;;;;;;;505.73;32.03;;;;;;;4.78;69.78;102125.19;10403816;28;20100;-67
2021/12/18 00:27:55;;;;;;;586.30;41.20;;;;;;;4.89;69.95;102128.63;10402768;28;20045;-67
2021/12/18 00:32:57;;;;;;;455.73;27.70;;;;;;;4.89;69.76;102124.31;10403720;28;20052;-67
2021/12/18 00:38:04;;;;;;;135.50;22.15;;;;;;;4.85;70.32;102116.53;10403176;28;20037;-67
2021/12/18 00:43:21;;;;;;;440.77;25.73;;;;;;;4.93;70.12;102115.66;10403922;28;20050;-67
2021/12/18 00:48:23;;;;;;;281.13;25.05;;;;;;;4.89;70.15;102107.88;10403697;28;20049;-67
2021/12/18 00:53:25;;;;;;;268.42;22.63;;;;;;;4.88;70.14;102111.34;10403923;28;20414;-67
2021/12/18 00:58:28;;;;;;;210.45;20.80;;;;;;;4.85;70.26;102116.53;10401856;28;20401;-67
2021/12/18 01:03:29;;;;;;;178.80;18.98;;;;;;;4.97;70.15;102100.94;10403379;28;20137;-67
2021/12/18 01:08:31;;;;;;;190.63;19.27;;;;;;;4.94;69.77;102101.84;10402996;28;20077;-67
2021/12/18 01:13:41;;;;;;;159.63;19.88;;;;;;;4.91;70.03;102099.25;10403671;28;20045;-67
2021/12/18 01:24:04;;;;;;;426.42;25.48;;;;;;;4.76;69.77;102108.78;10411036;28;20042;-67
2021/12/18 01:29:05;;;;;;;635.17;28.40;;;;;;;4.69;69.57;102111.38;10403419;28;20056;-67
2021/12/18 01:34:07;;;;;;;399.20;21.63;;;;;;;4.66;69.53;102124.34;10376679;28;20508;-67
2021/12/18 01:39:09;;;;;;;473.45;24.02;;;;;;;4.39;69.85;102126.94;10406301;28;20077;-67
2021/12/18 01:54:32;;;;;;;479.95;32.95;;;;;;;4.07;69.94;102151.94;10408816;28;20048;-67
2021/12/18 01:59:43;;;;;;;653.42;29.00;;;;;;;3.84;70.13;102151.03;10408815;28;20045;-66
2021/12/18 02:04:45;;;;;;;317.83;21.15;;;;;;;3.66;70.27;102145.75;10408770;28;20047;-67
2021/12/18 02:10:00;;;;;;;542.72;34.90;;;;;;;3.62;70.25;102144.84;10407729;28;20073;-67
2021/12/18 02:25:30;;;;;;;650.75;36.00;;;;;;;3.68;70.02;102144.03;10406990;28;20171;-67
2021/12/18 02:30:33;;;;;;;553.90;25.38;;;;;;;3.40;70.20;102147.34;10407454;28;20303;-67
2021/12/18 02:35:42;;;;;;;761.65;30.23;;;;;;;3.09;70.77;102153.22;10407610;28;20055;-67
2021/12/18 02:46:08;;;;;;;323.85;22.02;;;;;;;2.68;71.37;102153.78;10406919;28;20053;-67
2021/12/18 02:51:11;;;;;;;401.08;22.63;;;;;;;2.67;71.30;102149.50;10406783;28;20060;-67
2021/12/18 02:56:14;;;;;;;445.27;23.73;;;;;;;2.72;71.29;102150.41;10406242;28;20420;-67
2021/12/18 03:01:20;;;;;;;538.67;29.50;;;;;;;2.69;71.24;102150.38;10407992;28;20053;-67
2021/12/18 03:27:18;;;;;;;363.10;26.15;;;;;;;3.04;71.07;102160.94;10413162;28;20137;-67
2021/12/18 03:32:20;;;;;;;211.20;22.02;;;;;;;3.13;71.05;102153.22;10412686;28;20043;-67
2021/12/18 03:37:22;;;;;;;298.55;24.55;;;;;;;3.32;70.65;102143.84;10413673;28;20041;-67
2021/12/18 03:42:23;;;;;;;58.78;15.70;;;;;;;3.43;70.49;102140.50;10410045;28;20057;-67
2021/12/18 03:47:25;;;;;;;89.30;17.55;;;;;;;3.52;70.43;102143.09;10403943;28;20121;-67
2021/12/18 03:52:27;;;;;;;114.05;20.10;;;;;;;3.52;70.14;102142.22;10412094;28;20070;-67
2021/12/18 03:57:28;;;;;;;24.33;14.45;;;;;;;3.57;70.05;102135.38;10411812;28;20045;-67
2021/12/18 04:02:30;;;;;;;27.77;14.93;;;;;;;3.58;69.88;102139.66;10409919;28;20562;-67
2021/12/18 04:07:40;;;;;;;36.45;15.88;;;;;;;3.70;70.01;102134.56;10383363;28;20052;-67
2021/12/18 04:12:41;;;;;;;30.08;15.50;;;;;;;3.83;69.67;102128.53;10394600;28;20476;-67
2021/12/18 04:17:43;;;;;;;35.92;16.10;;;;;;;3.86;69.71;102137.19;10404050;28;20084;-67
2021/12/18 04:22:45;;;;;;;44.30;17.83;;;;;;;3.97;69.44;102129.47;10404972;28;20460;-67
2021/12/18 04:27:47;;;;;;;38.75;17.00;;;;;;;4.09;69.59;102128.66;10404229;28;20571;-67
2021/12/18 04:32:48;;;;;;;108.68;22.75;;;;;;;4.06;69.07;102133.81;10403952;28;20045;-67
2021/12/18 04:37:50;;;;;;;114.20;24.23;;;;;;;4.22;68.95;102131.25;10403511;28;20041;-67
2021/12/18 04:42:53;;;;;;;207.38;30.48;;;;;;;4.09;68.53;102137.25;10419322;28;20477;-67
2021/12/18 04:47:57;;;;;;;74.93;21.60;;;;;;;3.95;69.13;102136.38;10403805;28;20493;-67
2021/12/18 04:52:58;;;;;;;42.88;18.00;;;;;;;3.92;69.18;102131.19;10404413;28;20565;-67
2021/12/18 04:58:00;;;;;;;68.90;19.95;;;;;;;3.98;69.00;102133.81;10401868;28;20478;-67
2021/12/18 05:03:05;;;;;;;70.43;21.58;;;;;;;4.02;69.17;102132.94;10401533;28;20046;-67
2021/12/18 05:08:07;;;;;;;69.22;21.05;;;;;;;4.17;69.35;102139.88;10403992;28;20049;-67
2021/12/18 05:13:09;;;;;;;122.30;20.98;;;;;;;4.24;69.10;102141.59;10404088;28;20132;-67
2021/12/18 05:18:10;;;;;;;60.47;20.60;;;;;;;4.14;69.30;102145.91;10403473;28;20136;-67
2021/12/18 05:23:12;;;;;;;182.77;28.02;;;;;;;4.33;69.40;102141.63;10402249;28;20425;-67
2021/12/18 05:28:14;;;;;;;63.65;22.35;;;;;;;4.47;68.88;102139.91;10403532;28;20064;-67
2021/12/18 05:33:16;;;;;;;116.60;22.08;;;;;;;4.46;68.90;102128.66;10403064;28;20449;-67
2021/12/18 05:38:17;;;;;;;203.65;22.98;;;;;;;4.45;68.85;102126.09;10403175;28;20061;-68
2021/12/18 05:43:19;;;;;;;133.48;25.83;;;;;;;4.38;68.96;102120.03;10403205;28;20590;-67
2021/12/18 05:48:21;;;;;;;268.80;32.42;;;;;;;4.40;68.75;102118.31;10402619;28;20124;-67
2021/12/18 05:53:23;;;;;;;79.68;22.05;;;;;;;4.39;68.99;102116.56;10401956;28;20041;-68
2021/12/18 05:58:24;;;;;;;165.80;26.92;;;;;;;4.51;68.81;102107.94;10403318;28;20068;-67
2021/12/18 06:03:26;;;;;;;111.82;24.00;;;;;;;4.52;68.56;102114.84;10405124;28;20053;-68
2021/12/18 06:08:31;;;;;;;167.90;26.48;;;;;;;4.45;68.93;102115.72;10410355;28;20053;-68
2021/12/18 06:13:33;;;;;;;219.60;26.20;;;;;;;4.31;69.14;102123.47;10408690;28;20128;-68
2021/12/18 06:18:37;;;;;;;161.25;25.42;;;;;;;4.28;69.21;102109.66;10409379;28;20060;-68
2021/12/18 06:23:44;;;;;;;65.35;23.10;;;;;;;4.30;69.54;102108.81;10401875;28;20056;-68
2021/12/18 06:28:46;;;;;;;65.60;23.45;;;;;;;4.28;69.19;102107.94;10409330;28;20045;-68
2021/12/18 06:34:06;;;;;;;60.88;22.65;;;;;;;4.34;69.23;102107.94;10388303;28;20045;-67
2021/12/18 06:39:08;;;;;;;63.83;22.85;;;;;;;4.27;68.88;102115.72;10409716;28;20558;-68
2021/12/18 06:44:10;;;;;;;64.32;23.48;;;;;;;4.31;69.08;102114.84;10407895;28;20400;-67
2021/12/18 06:49:12;;;;;;;90.88;24.67;;;;;;;4.50;69.08;102119.16;10394520;28;20056;-67
2021/12/18 06:54:14;;;;;;;89.07;26.02;;;;;;;4.59;68.33;102114.84;10394112;28;20052;-67
2021/12/18 06:59:16;;;;;;;51.63;22.83;;;;;;;4.57;68.49;102116.59;10408135;28;20037;-68
2021/12/18 07:04:19;;;;;;;92.55;25.75;;;;;;;4.53;68.88;102112.28;10408984;28;20136;-68
2021/12/18 07:09:21;;;;;;;92.55;26.13;;;;;;;4.60;68.82;102108.78;10407736;28;20517;-68
2021/12/18 07:14:22;;;;;;;105.47;27.63;;;;;;;4.73;68.46;102109.66;10406575;28;20133;-68
2021/12/18 07:19:26;;;;;;;98.05;27.55;;;;;;;4.67;68.36;102109.66;10408087;28;20049;-67
2021/12/18 07:24:27;;;;;;;119.78;27.20;;;;;;;4.62;68.38;102113.97;10407758;28;20080;-68
2021/12/18 07:29:29;;;;;;;61.33;23.33;;;;;;;4.57;68.49;102105.34;10406453;28;20045;-68
2021/12/18 07:34:31;;;;;;;94.85;25.85;;;;;;;4.61;68.73;102118.31;10406660;28;20121;-68
2021/12/18 07:39:32;;;;;;;64.57;22.85;;;;;;;4.62;68.52;102126.94;10407396;28;20128;-68
2021/12/18 07:44:34;;;;;;;64.63;22.45;;;;;;;4.63;68.29;102126.06;10405010;28;20096;-68
2021/12/18 07:49:36;;;;;;;74.53;23.08;;;;;;;4.47;68.76;102134.72;10373202;28;20048;-68
2021/12/18 07:54:38;;;;;;;61.75;23.38;;;;;;;4.50;69.00;102126.94;10405952;28;20041;-75
2021/12/18 07:59:40;;;;;;;165.65;29.80;;;;;;;4.69;68.65;102129.53;10404986;28;20140;-74
2021/12/18 08:04:42;;;;;;;222.82;33.60;;;;;;;4.68;68.48;102126.91;10405608;28;20152;-73
2021/12/18 08:09:44;;;;;;;95.15;25.63;;;;;;;4.63;68.75;102128.66;10406037;28;20272;-73
2021/12/18 08:14:45;;;;;;;65.25;23.92;;;;;;;4.76;68.72;102135.53;10405917;28;20045;-73
2021/12/18 08:19:47;;;;;;;66.38;22.88;;;;;;;5.00;68.65;102137.25;10405761;28;20403;-72
2021/12/18 08:24:48;;;;;;;68.00;24.33;;;;;;;5.07;68.16;102144.16;10405826;28;20132;-73
2021/12/18 08:29:50;;;;;;;119.97;28.85;;;;;;;5.02;68.49;102140.72;10405090;28;20050;-73
2021/12/18 08:34:52;;;;;;;116.90;28.70;;;;;;;5.07;68.30;102138.97;10405546;28;20045;-72
2021/12/18 08:39:54;;;;;;;87.38;25.48;;;;;;;5.08;68.06;102143.28;10405356;28;20208;-73
2021/12/18 08:44:55;;;;;;;105.25;28.52;;;;;;;5.17;68.13;102151.03;10404676;28;20123;-73
2021/12/18 08:49:57;;;;;;;72.05;24.27;;;;;;;5.12;68.23;102139.81;10404509;28;20045;-73
2021/12/18 08:54:59;;;;;;;51.13;21.67;;;;;;;5.11;68.50;102141.53;10403788;28;20060;-74
2021/12/18 09:00:04;;;;;;;65.60;22.92;;;;;;;5.19;68.35;102137.19;10404095;28;20048;-74
2021/12/18 09:05:07;;;;;;;51.08;20.25;;;;;;;5.16;68.02;102132.03;10396894;28;20049;-72
2021/12/18 09:10:11;;;;;;;54.88;21.27;;;;;;;5.20;68.17;102125.97;10403599;28;20582;-73
2021/12/18 09:15:13;;;;;;;54.10;20.75;;;;;;;5.24;68.14;102129.41;10403182;28;20061;-72
2021/12/18 09:20:15;;;;;;;92.10;25.17;;;;;;;5.22;67.84;102128.56;10402262;28;20052;-73
2021/12/18 09:25:17;;;;;;;67.43;22.90;;;;;;;5.23;68.48;102130.25;10383439;28;20412;-73
2021/12/18 09:30:18;;;;;;;51.42;19.70;;;;;;;5.47;68.05;102125.84;10400995;28;20045;-74
2021/12/18 09:35:21;;;;;;;54.35;19.33;;;;;;;5.55;67.58;102128.44;10403063;28;20049;-73
2021/12/18 09:40:23;;;;;;;36.75;17.80;;;;;;;5.49;67.91;102123.28;10407507;28;20053;-74
2021/12/18 09:45:25;;;;;;;35.42;17.08;;;;;;;5.60;67.90;102124.06;10410166;28;20447;-74
2021/12/18 09:50:28;;;;;;;54.63;20.33;;;;;;;5.66;67.81;102121.44;10396892;28;20059;-73
2021/12/18 09:55:30;;;;;;;48.92;19.08;;;;;;;5.62;67.89;102122.34;10407570;28;20440;-73
2021/12/18 10:00:32;;;;;;;47.13;19.08;;;;;;;5.68;67.74;102117.13;10410965;28;20041;-73
2021/12/18 10:05:35;;;;;;;39.67;17.33;;;;;;;5.74;67.58;102116.25;10410052;28;20391;-73
2021/12/18 10:10:56;;;;;;;41.05;17.30;;;;;;;5.75;67.43;102108.44;10405005;28;20128;-73
2021/12/18 10:16:09;;;;;;;42.63;18.63;;;;;;;5.88;67.32;102101.44;10409502;28;20087;-72
2021/12/18 10:21:16;;;;;;;41.50;17.58;;;;;;;5.70;67.20;102093.72;10408866;28;20136;-72
2021/12/18 10:26:38;;;;;;;42.65;18.10;;;;;;;5.68;67.61;102087.69;10409732;28;20041;-74
2021/12/18 10:31:45;;;;;;;38.80;17.25;;;;;;;5.81;67.55;102079.84;10408673;28;20125;-73
2021/12/18 10:37:08;;;;;;;32.67;16.05;;;;;;;5.94;67.46;102075.44;10408363;28;20478;-74
2021/12/18 10:42:24;;;;;;;35.60;16.67;;;;;;;5.92;67.08;102072.00;10407724;28;20473;-72
2021/12/18 10:47:42;;;;;;;24.75;13.07;;;;;;;6.04;66.60;102067.53;10408355;28;20107;-71
2021/12/18 10:52:44;;;;;;;30.08;14.13;;;;;;;6.12;66.63;102064.91;10408484;28;20083;-72
2021/12/18 10:57:54;;;;;;;27.42;13.38;;;;;;;5.95;66.88;102056.38;10409277;28;20136;-72
2021/12/18 11:02:55;;;;;;;23.00;11.85;;;;;;;5.97;67.00;102059.81;10408224;28;20475;-72
2021/12/18 11:08:08;;;;;;;23.70;11.35;;;;;;;6.09;66.85;102052.78;10407067;28;20401;-72
2021/12/18 11:18:33;;;;;;;9.98;6.80;;;;;;;5.92;66.61;102040.81;10407967;28;20136;-73
2021/12/18 11:23:45;;;;;;;18.75;9.10;;;;;;;5.95;66.72;102027.78;10408059;28;20531;-73
2021/12/18 11:28:50;;;;;;;9.88;6.13;;;;;;;5.99;66.11;102021.72;10406781;28;20478;-72
2021/12/18 11:33:51;;;;;;;15.45;8.13;;;;;;;6.04;66.20;102025.16;10407500;28;20049;-72
2021/12/18 11:38:54;;;;;;;14.63;8.40;;;;;;;6.06;66.15;102016.44;10406384;28;20049;-73
2021/12/18 11:43:56;;;;;;;12.32;7.20;;;;;;;5.92;66.33;102020.06;10406539;28;20045;-73
2021/12/18 11:49:01;;;;;;;12.32;7.20;;;;;;;5.81;66.55;102012.34;10406683;28;20461;-72
2021/12/18 11:54:24;;;;;;;13.60;7.95;;;;;;;5.79;67.05;102011.47;10407309;28;20050;-73
2021/12/18 11:59:42;;;;;;;15.43;7.88;;;;;;;5.85;66.71;101994.97;10406041;28;20055;-73
2021/12/18 12:05:08;;;;;;;14.35;7.75;;;;;;;6.01;66.33;101992.25;10406354;28;20051;-73
2021/12/18 12:10:47;;;;;;;15.45;8.57;;;;;;;6.05;66.49;101993.94;10406845;28;20132;-73
2021/12/18 12:15:52;;;;;;;16.90;8.93;;;;;;;6.20;66.67;101972.19;10404994;28;20451;-74
2021/12/18 12:20:53;;;;;;;22.55;10.82;;;;;;;6.35;66.18;101966.84;10405864;28;20077;-73
2021/12/18 12:26:01;;;;;;;18.98;10.85;;;;;;;6.37;65.90;101970.28;10405350;28;20136;-74
2021/12/18 12:31:10;;;;;;;20.65;11.13;;;;;;;6.20;66.19;101975.66;10404993;28;20538;-73
2021/12/18 12:36:23;;;;;;;21.95;11.82;;;;;;;6.13;66.27;101973.09;10404681;28;20053;-73
2021/12/18 12:41:37;;;;;;;20.35;11.10;;;;;;;6.16;65.98;101973.09;10377356;28;20544;-73
2021/12/18 12:46:40;;;;;;;18.38;10.43;;;;;;;6.19;66.17;101960.03;10399259;28;20142;-73
2021/12/18 12:52:01;;;;;;;21.13;11.82;;;;;;;6.21;65.30;101951.38;10371707;28;20136;-73
2021/12/18 12:57:28;;;;;;;18.63;10.53;;;;;;;5.97;66.31;101951.59;10363170;28;20092;-73
2021/12/18 13:02:32;;;;;;;21.73;11.63;;;;;;;6.07;66.62;101948.03;10387405;28;20076;-74
2021/12/18 13:07:34;;;;;;;20.70;11.13;;;;;;;6.15;66.38;101941.03;10380734;28;20061;-73
2021/12/18 13:12:53;;;;;;;23.13;11.75;;;;;;;6.23;66.33;101939.22;10379732;28;20454;-74
2021/12/18 13:18:08;;;;;;;19.88;11.55;;;;;;;6.25;66.35;101934.03;10411880;28;20160;-73
2021/12/18 13:23:17;;;;;;;22.35;11.70;;;;;;;6.32;65.98;101928.78;10410076;28;20412;-73
2021/12/18 13:28:20;;;;;;;22.40;12.13;;;;;;;6.31;66.08;101926.19;10378449;28;20603;-73
2021/12/18 13:33:26;;;;;;;25.50;12.88;;;;;;;6.34;65.85;101928.75;10396612;28;20053;-73
2021/12/18 13:38:40;;;;;;;22.95;13.45;;;;;;;6.16;65.95;101932.38;10405630;28;20418;-72
2021/12/18 13:43:43;;;;;;;22.38;12.32;;;;;;;6.07;66.22;101927.28;10411410;28;20529;-73
2021/12/18 13:48:49;;;;;;;25.88;13.35;;;;;;;6.00;66.65;101930.78;10409182;28;20065;-74
2021/12/18 13:53:59;;;;;;;23.92;12.57;;;;;;;5.95;67.38;101922.19;10411132;28;20061;-73
2021/12/18 13:59:18;;;;;;;;;;;;;;;5.80;67.31;101926.66;10412478;28;20088;-73
2021/12/18 14:04:23;;;;;;;22.13;12.20;;;;;;;5.83;67.15;101927.50;10411155;28;20066;-73
2021/12/18 14:09:33;;;;;;;24.45;13.10;;;;;;;5.82;67.53;101917.13;10410534;28;20053;-74
2021/12/18 14:14:35;;;;;;;16.42;9.73;;;;;;;5.86;67.41;101921.41;10410335;28;20081;-73
2021/12/18 14:19:39;;;;;;;17.40;9.48;;;;;;;5.90;67.49;101921.34;10410357;28;20057;-73
2021/12/18 14:24:43;;;;;;;16.00;9.02;;;;;;;5.83;67.42;101935.28;10409344;28;20059;-73
2021/12/18 14:29:45;;;;;;;22.00;11.45;;;;;;;5.94;67.55;101924.81;10410337;28;20045;-74
2021/12/18 14:34:46;;;;;;;23.50;11.98;;;;;;;5.94;67.49;101923.06;10410114;28;20128;-73
2021/12/18 14:39:57;;;;;;;23.27;12.57;;;;;;;5.76;67.75;101922.38;10409232;28;20524;-74
2021/12/18 14:45:03;;;;;;;22.40;12.82;;;;;;;5.82;67.94;101925.75;10409673;28;20049;-73
2021/12/18 14:50:24;;;;;;;29.13;16.05;;;;;;;5.74;67.64;101913.75;10410061;28;20292;-73
2021/12/18 14:55:42;;;;;;;25.75;15.93;;;;;;;5.55;67.63;101918.22;10408675;28;20073;-73
2021/12/18 15:00:59;;;;;;;24.55;14.25;;;;;;;5.50;67.65;101922.56;10409388;28;20124;-74
2021/12/18 15:06:20;;;;;;;22.88;13.98;;;;;;;5.26;67.41;101920.16;10407792;28;20046;-74
2021/12/18 15:11:25;;;;;;;18.38;11.68;;;;;;;5.21;67.64;101916.72;10408570;28;20175;-73
2021/12/18 15:16:26;;;;;;;15.63;10.43;;;;;;;5.21;67.33;101914.97;10408223;28;20053;-73
2021/12/18 15:21:29;;;;;;;14.00;8.98;;;;;;;5.12;67.34;101914.19;10407703;28;20089;-73
2021/12/18 15:26:31;;;;;;;14.27;9.05;;;;;;;5.13;67.56;101916.75;10407793;28;20075;-74
2021/12/18 15:31:33;;;;;;;14.90;10.00;;;;;;;5.09;67.27;101915.06;10407793;28;20452;-73
2021/12/18 15:36:35;;;;;;;13.20;9.05;;;;;;;5.06;67.11;101914.22;10406438;28;20060;-73
2021/12/18 15:41:39;;;;;;;13.52;9.20;;;;;;;5.04;67.28;101913.38;10406300;28;20428;-74
2021/12/18 15:46:41;;;;;;;16.38;10.02;;;;;;;4.99;67.21;101915.97;10405852;28;20052;-74
2021/12/18 15:51:42;;;;;;;16.35;10.20;;;;;;;4.99;67.36;101915.13;10405874;28;20049;-74
2021/12/18 15:56:44;;;;;;;12.50;8.27;;;;;;;4.89;67.49;101927.28;10407201;28;20076;-73
2021/12/18 16:01:46;;;;;;;13.43;8.05;;;;;;;4.82;67.62;101930.75;10406135;28;20479;-72
2021/12/18 16:06:48;;;;;;;11.13;7.82;;;;;;;4.82;67.62;101929.91;10406293;28;20085;-73
2021/12/18 16:11:56;;;;;;;10.55;6.65;;;;;;;4.86;67.84;101913.47;10405201;28;20498;-73
2021/12/18 16:16:58;;;;;;;9.32;6.80;;;;;;;4.79;67.46;101915.22;10405459;28;20136;-73
2021/12/18 16:22:00;;;;;;;9.02;6.50;;;;;;;4.96;67.36;101928.09;10405312;28;20042;-73
2021/12/18 16:27:02;;;;;;;9.60;6.97;;;;;;;5.11;67.23;101928.00;10405861;28;20128;-73
2021/12/18 16:32:04;;;;;;;11.00;7.70;;;;;;;5.17;66.75;101928.84;10404548;28;20581;-73
2021/12/18 16:37:08;;;;;;;9.05;7.13;;;;;;;5.19;66.86;101931.41;10405610;28;20049;-72
2021/12/18 16:42:09;;;;;;;15.15;9.90;;;;;;;5.17;66.93;101928.84;10404073;28;20049;-73
2021/12/18 16:47:13;;;;;;;14.95;10.00;;;;;;;5.11;67.17;101922.81;10404270;28;20259;-73
2021/12/18 16:52:15;;;;;;;12.82;8.27;;;;;;;5.17;66.95;101925.38;10404693;28;20049;-73
2021/12/18 16:57:17;;;;;;;13.70;9.32;;;;;;;5.01;67.38;101921.16;10403322;28;20498;-73
2021/12/18 17:02:19;;;;;;;20.85;11.73;;;;;;;5.05;67.40;101913.34;10403640;28;20132;-73
2021/12/18 17:07:21;;;;;;;18.77;11.40;;;;;;;5.08;67.29;101908.16;10404465;28;20482;-73
2021/12/18 17:12:43;;;;;;;13.63;8.70;;;;;;;4.98;67.33;101906.50;10403343;28;20041;-73
2021/12/18 17:17:45;;;;;;;13.05;8.18;;;;;;;4.98;67.38;101905.63;10402393;28;20058;-74
2021/12/18 17:22:46;;;;;;;14.80;8.00;;;;;;;5.08;67.36;101902.97;10402791;28;20088;-73
2021/12/18 17:27:49;;;;;;;17.15;12.50;;;;;;;5.07;67.44;101900.38;10403914;28;20125;-72
2021/12/18 17:32:51;;;;;;;16.30;10.85;;;;;;;4.96;67.68;101894.41;10403607;28;20129;-73
2021/12/18 17:37:53;;;;;;;18.08;10.10;;;;;;;5.01;67.66;101890.91;10403333;28;20482;-74
2021/12/18 17:42:56;;;;;;;16.98;9.65;;;;;;;4.97;67.72;101888.34;10402992;28;20536;-73
2021/12/18 17:47:57;;;;;;;14.23;8.73;;;;;;;5.01;67.82;101884.84;10403857;28;20084;-72
2021/12/18 17:52:59;;;;;;;15.68;9.27;;;;;;;4.96;67.70;101884.91;10403453;28;20129;-72
2021/12/18 17:58:03;;;;;;;19.35;11.15;;;;;;;4.91;67.72;101883.19;10404046;28;20080;-73
2021/12/18 18:03:05;;;;;;;16.33;10.30;;;;;;;4.89;67.98;101874.56;10411108;28;20045;-73
2021/12/18 18:08:07;;;;;;;17.65;10.15;;;;;;;4.92;68.06;101880.59;10411107;28;20077;-73
2021/12/18 18:13:11;;;;;;;16.30;10.25;;;;;;;4.83;68.27;101874.59;10378266;28;20125;-73
2021/12/18 18:18:13;;;;;;;18.17;10.57;;;;;;;4.83;68.49;101869.41;10369832;28;20049;-74
2021/12/18 18:23:15;;;;;;;16.55;10.63;;;;;;;4.90;68.35;101860.75;10409167;28;20512;-73
2021/12/18 18:28:18;;;;;;;17.63;10.90;;;;;;;4.97;68.17;101855.50;10408924;28;20148;-73
2021/12/18 18:33:20;;;;;;;18.40;10.02;;;;;;;5.00;68.24;101847.72;10408269;28;20050;-72
2021/12/18 18:38:23;;;;;;;17.08;10.55;;;;;;;5.04;68.07;101848.53;10407844;28;20489;-72
2021/12/18 18:43:27;;;;;;;19.02;11.43;;;;;;;5.03;68.01;101850.25;10408511;28;20406;-73
2021/12/18 18:48:30;;;;;;;22.98;12.45;;;;;;;4.99;68.20;101853.75;10401953;28;20055;-73
2021/12/18 18:53:32;;;;;;;19.58;11.75;;;;;;;4.90;68.66;101861.59;10366575;28;20544;-73
2021/12/18 18:58:34;;;;;;;20.80;12.18;;;;;;;5.04;68.30;101858.91;10393853;28;20409;-73
2021/12/18 19:03:37;;;;;;;25.48;13.68;;;;;;;4.95;68.44;101864.16;10370684;28;20057;-74
2021/12/18 19:08:39;;;;;;;27.52;15.75;;;;;;;4.99;68.51;101860.66;10398588;28;20050;-73
2021/12/18 19:13:43;;;;;;;21.88;13.05;;;;;;;5.07;68.47;101851.97;10388721;28;20084;-73
2021/12/18 19:19:01;;;;;;;56.42;31.67;;;;;;;5.13;68.46;101856.25;10399456;28;20049;-73
2021/12/18 19:24:03;;;;;;;50.30;26.48;;;;;;;5.10;68.42;101851.09;10371326;28;20136;-73
2021/12/18 19:29:05;;;;;;;32.53;17.73;;;;;;;5.05;68.71;101850.25;10365187;28;20041;-73
2021/12/18 19:34:08;;;;;;;54.42;30.52;;;;;;;5.17;68.62;101850.16;10385568;28;20474;-73
2021/12/18 19:39:11;;;;;;;38.97;21.08;;;;;;;5.03;68.64;101846.81;10379900;28;20054;-73
2021/12/18 19:44:13;;;;;;;38.08;20.38;;;;;;;5.08;68.80;101845.06;10365828;28;20049;-72
2021/12/18 19:49:15;;;;;;;34.38;19.88;;;;;;;5.00;68.97;101841.66;10373293;28;20517;-72
2021/12/18 19:54:17;;;;;;;43.67;24.17;;;;;;;5.14;68.81;101834.63;10395172;28;20041;-73
2021/12/18 19:59:21;;;;;;;40.60;23.45;;;;;;;5.21;68.68;101825.91;10368716;28;20058;-72
2021/12/18 20:04:33;;;;;;;35.70;19.50;;;;;;;5.16;68.71;101817.34;10369450;28;20092;-72
2021/12/18 20:09:37;;;;;;;20.83;12.45;;;;;;;5.14;68.73;101832.03;10401238;28;20049;-72
2021/12/18 20:14:39;;;;;;;19.95;12.20;;;;;;;5.21;68.73;101828.50;10405451;28;20046;-72
2021/12/18 20:19:41;;;;;;;20.63;12.18;;;;;;;5.25;68.61;101828.47;10403689;28;20692;-72
2021/12/18 20:24:43;;;;;;;16.13;11.52;;;;;;;5.17;68.51;101829.41;10403830;28;20067;-72
2021/12/18 20:29:45;;;;;;;18.73;11.88;;;;;;;5.18;68.91;101825.97;10403466;28;20083;-71
2021/12/18 20:34:47;;;;;;;24.38;17.17;;;;;;;5.23;68.54;101819.00;10403303;28;20132;-73
2021/12/18 20:39:49;;;;;;;19.40;13.15;;;;;;;5.25;68.52;101806.88;10402200;28;20052;-71
2021/12/18 20:44:51;;;;;;;18.67;12.05;;;;;;;5.17;68.98;101814.72;10384545;28;20056;-72
2021/12/18 20:49:52;;;;;;;18.10;11.80;;;;;;;5.17;68.75;101808.66;10389021;28;20054;-72
2021/12/18 20:54:54;;;;;;;18.33;12.25;;;;;;;5.22;68.77;101801.72;10403615;28;20060;-72
2021/12/18 20:59:56;;;;;;;19.33;12.20;;;;;;;5.22;68.79;101805.19;10404623;28;20129;-71
2021/12/18 21:04:58;;;;;;;16.65;11.88;;;;;;;5.19;68.85;101807.78;10402076;28;20071;-71
2021/12/18 21:10:01;;;;;;;20.25;12.13;;;;;;;4.98;69.32;101810.56;10403713;28;20136;-72
2021/12/18 21:15:04;;;;;;;18.15;12.15;;;;;;;5.07;69.62;101807.00;10404770;28;20056;-72
2021/12/18 21:20:07;;;;;;;18.30;11.30;;;;;;;5.08;69.47;101804.44;10403516;28;20053;-71
2021/12/18 21:25:10;;;;;;;19.40;11.55;;;;;;;5.11;69.47;101799.19;10403693;28;20061;-71
2021/12/18 21:30:15;;;;;;;18.00;12.88;;;;;;;5.11;69.28;101782.78;10404229;28;20132;-71
2021/12/18 21:40:42;;;;;;;22.05;13.45;;;;;;;5.13;69.32;101783.63;10371114;28;20414;-72
2021/12/18 21:45:44;;;;;;;27.65;14.77;;;;;;;5.14;69.33;101786.22;10370400;28;20177;-71
2021/12/18 21:50:46;;;;;;;22.73;14.57;;;;;;;5.19;69.42;101784.44;10370190;28;20048;-71
2021/12/18 21:55:49;;;;;;;23.05;13.95;;;;;;;5.31;69.31;101783.50;10411072;28;20050;-72
2021/12/18 22:00:53;;;;;;;24.63;14.65;;;;;;;5.39;69.19;101784.28;10410829;28;20465;-72
2021/12/18 22:05:55;;;;;;;20.17;13.25;;;;;;;5.47;68.85;101772.09;10411422;28;20061;-72
2021/12/18 22:11:00;;;;;;;23.58;14.70;;;;;;;5.51;69.01;101781.56;10410492;28;20144;-72
2021/12/18 22:16:03;;;;;;;20.77;13.05;;;;;;;5.59;68.80;101781.50;10411116;28;20496;-72
2021/12/18 22:21:04;;;;;;;27.33;15.10;;;;;;;5.66;68.67;101778.81;10411005;28;20045;-72
2021/12/18 22:26:06;;;;;;;18.05;12.40;;;;;;;5.65;68.96;101781.44;10409821;28;20568;-71
2021/12/18 22:31:08;;;;;;;21.23;13.73;;;;;;;5.65;68.75;101776.25;10406313;28;20045;-67
2021/12/18 22:36:09;;;;;;;24.65;15.55;;;;;;;5.57;68.98;101773.72;10409271;28;20195;-67
2021/12/18 22:41:12;;;;;;;19.85;13.57;;;;;;;5.42;69.34;101773.88;10408994;28;20506;-67
2021/12/18 22:46:14;;;;;;;21.67;14.45;;;;;;;5.54;69.30;101771.16;10407710;28;20052;-67
2021/12/18 22:51:15;;;;;;;24.50;14.55;;;;;;;5.66;68.98;101758.03;10409024;28;20045;-67
2021/12/18 22:56:18;;;;;;;16.23;11.70;;;;;;;5.68;68.87;101758.88;10406474;28;20480;-67
2021/12/18 23:01:27;;;;;;;25.85;14.85;;;;;;;5.71;68.94;101742.44;10401517;28;20506;-67
2021/12/18 23:06:29;;;;;;;23.55;15.07;;;;;;;5.75;68.78;101742.38;10408672;28;20107;-67
2021/12/18 23:11:37;;;;;;;15.98;10.68;;;;;;;5.81;68.73;101744.91;10408346;28;20496;-66
2021/12/18 23:21:43;;;;;;;17.77;11.63;;;;;;;5.78;68.50;101742.31;10404127;28;20128;-67
2021/12/18 23:26:46;;;;;;;16.98;11.20;;;;;;;5.84;68.50;101746.63;10407661;28;20053;-67
2021/12/18 23:31:52;;;;;;;18.55;12.35;;;;;;;5.94;68.41;101741.28;10387345;28;20058;-67
2021/12/18 23:36:54;;;;;;;22.38;14.93;;;;;;;5.97;68.30;101730.00;10400540;28;20577;-67
2021/12/18 23:42:13;;;;;;;23.38;13.45;;;;;;;5.98;68.28;101714.38;10401825;28;20064;-67
2021/12/18 23:47:15;;;;;;;20.00;12.55;;;;;;;5.95;68.36;101709.25;10407042;28;20153;-67
2021/12/18 23:52:17;;;;;;;25.55;14.80;;;;;;;5.85;68.39;101710.25;10406512;28;20057;-67
2021/12/18 23:57:18;;;;;;;16.92;11.77;;;;;;;5.78;68.53;101705.97;10403643;28;20643;-66
